Terminal Aerodrome Forecast
Issued by NWS Shreveport, LA

Home | Current Version | Previous Version | Text Only | Print | Product List | Glossary On
Versions: 1 2 3 4 5 6 7 8 9 10 11 12 13 14 15 16 17 18 19 20
000
FTUS44 KSHV 281249 AAA
TAFTXK
TAF AMD
KTXK 281249Z 2813/2912 13004KT P6SM FEW030
     FM281500 20005KT P6SM VCSH SCT035
     FM281700 17006KT P6SM VCTS BKN045CB
     FM290000 14004KT P6SM SCT050 BKN100=

USA.gov is the U.S. government's official web portal to all federal, state and local government web resources and services.